sensor_id;sensor_type;location;lat;lon;timestamp;P1;durP1;ratioP1;P2;durP2;ratioP2
18455;SDS011;9357;49.900;8.208;2023-05-10T00:01:03;0.93;;;0.80;;
18455;SDS011;9357;49.900;8.208;2023-05-10T00:02:36;1.67;;;0.80;;
18455;SDS011;9357;49.900;8.208;2023-05-10T00:04:09;1.30;;;0.70;;
18455;SDS011;9357;49.900;8.208;2023-05-10T00:05:42;0.57;;;0.57;;
18455;SDS011;9357;49.900;8.208;2023-05-10T00:07:16;2.80;;;0.80;;
18455;SDS011;9357;49.900;8.208;2023-05-10T00:08:49;0.50;;;0.50;;
18455;SDS011;9357;49.900;8.208;2023-05-10T00:10:21;1.17;;;0.80;;
18455;SDS011;9357;49.900;8.208;2023-05-10T00:11:54;0.57;;;0.57;;
18455;SDS011;9357;49.900;8.208;2023-05-10T00:13:26;0.60;;;0.60;;
18455;SDS011;9357;49.900;8.208;2023-05-10T00:14:59;1.90;;;0.70;;
18455;SDS011;9357;49.900;8.208;2023-05-10T00:16:32;1.60;;;0.80;;
18455;SDS011;9357;49.900;8.208;2023-05-10T00:18:05;1.47;;;0.50;;
18455;SDS011;9357;49.900;8.208;2023-05-10T00:19:36;0.53;;;0.53;;
18455;SDS011;9357;49.900;8.208;2023-05-10T00:21:09;0.67;;;0.63;;
18455;SDS011;9357;49.900;8.208;2023-05-10T00:22:43;3.07;;;0.50;;
18455;SDS011;9357;49.900;8.208;2023-05-10T00:24:16;0.40;;;0.40;;
18455;SDS011;9357;49.900;8.208;2023-05-10T00:25:49;0.40;;;0.40;;
18455;SDS011;9357;49.900;8.208;2023-05-10T00:27:20;1.00;;;0.50;;
18455;SDS011;9357;49.900;8.208;2023-05-10T00:28:53;1.23;;;0.70;;
18455;SDS011;9357;49.900;8.208;2023-05-10T00:30:26;0.50;;;0.50;;
18455;SDS011;9357;49.900;8.208;2023-05-10T00:31:59;1.73;;;0.60;;
18455;SDS011;9357;49.900;8.208;2023-05-10T00:33:32;0.63;;;0.50;;
18455;SDS011;9357;49.900;8.208;2023-05-10T00:35:04;2.10;;;0.70;;
18455;SDS011;9357;49.900;8.208;2023-05-10T00:36:37;0.50;;;0.50;;
18455;SDS011;9357;49.900;8.208;2023-05-10T00:38:11;0.73;;;0.50;;
18455;SDS011;9357;49.900;8.208;2023-05-10T00:39:43;0.77;;;0.47;;
18455;SDS011;9357;49.900;8.208;2023-05-10T00:41:15;0.60;;;0.60;;
18455;SDS011;9357;49.900;8.208;2023-05-10T00:42:48;1.30;;;0.50;;
18455;SDS011;9357;49.900;8.208;2023-05-10T00:44:21;0.57;;;0.53;;
18455;SDS011;9357;49.900;8.208;2023-05-10T00:45:52;0.53;;;0.53;;
18455;SDS011;9357;49.900;8.208;2023-05-10T00:47:26;0.70;;;0.70;;
18455;SDS011;9357;49.900;8.208;2023-05-10T00:48:59;0.67;;;0.67;;
18455;SDS011;9357;49.900;8.208;2023-05-10T00:50:32;0.80;;;0.80;;
18455;SDS011;9357;49.900;8.208;2023-05-10T00:52:05;0.90;;;0.80;;
18455;SDS011;9357;49.900;8.208;2023-05-10T00:53:39;1.10;;;0.77;;
18455;SDS011;9357;49.900;8.208;2023-05-10T00:55:12;1.27;;;0.70;;
18455;SDS011;9357;49.900;8.208;2023-05-10T00:56:45;1.60;;;1.00;;
18455;SDS011;9357;49.900;8.208;2023-05-10T00:58:20;0.60;;;0.60;;
18455;SDS011;9357;49.900;8.208;2023-05-10T00:59:54;0.90;;;0.70;;
18455;SDS011;9357;49.900;8.208;2023-05-10T01:01:27;0.70;;;0.70;;
18455;SDS011;9357;49.900;8.208;2023-05-10T01:03:00;1.17;;;0.80;;
18455;SDS011;9357;49.900;8.208;2023-05-10T01:04:32;0.60;;;0.60;;
18455;SDS011;9357;49.900;8.208;2023-05-10T01:06:06;1.10;;;0.70;;
18455;SDS011;9357;49.900;8.208;2023-05-10T01:07:41;0.80;;;0.80;;
18455;SDS011;9357;49.900;8.208;2023-05-10T01:09:15;1.07;;;0.80;;
18455;SDS011;9357;49.900;8.208;2023-05-10T01:10:48;1.47;;;0.60;;
18455;SDS011;9357;49.900;8.208;2023-05-10T01:12:21;1.63;;;0.80;;
18455;SDS011;9357;49.900;8.208;2023-05-10T01:13:54;0.80;;;0.60;;
18455;SDS011;9357;49.900;8.208;2023-05-10T01:15:29;1.90;;;0.63;;
18455;SDS011;9357;49.900;8.208;2023-05-10T01:17:02;0.70;;;0.70;;
18455;SDS011;9357;49.900;8.208;2023-05-10T01:18:37;1.53;;;0.77;;
18455;SDS011;9357;49.900;8.208;2023-05-10T01:20:11;0.70;;;0.70;;
18455;SDS011;9357;49.900;8.208;2023-05-10T01:21:47;1.57;;;0.73;;
18455;SDS011;9357;49.900;8.208;2023-05-10T01:23:30;0.83;;;0.60;;
18455;SDS011;9357;49.900;8.208;2023-05-10T01:25:19;4.10;;;0.90;;
18455;SDS011;9357;49.900;8.208;2023-05-10T01:27:30;0.67;;;0.53;;
18455;SDS011;9357;49.900;8.208;2023-05-10T01:29:41;0.50;;;0.50;;
18455;SDS011;9357;49.900;8.208;2023-05-10T01:33:54;0.60;;;0.60;;
18455;SDS011;9357;49.900;8.208;2023-05-10T01:35:31;1.80;;;0.70;;
18455;SDS011;9357;49.900;8.208;2023-05-10T01:37:09;1.07;;;0.60;;
18455;SDS011;9357;49.900;8.208;2023-05-10T01:38:49;0.63;;;0.60;;
18455;SDS011;9357;49.900;8.208;2023-05-10T01:40:26;0.77;;;0.77;;
18455;SDS011;9357;49.900;8.208;2023-05-10T01:42:05;1.13;;;0.50;;
18455;SDS011;9357;49.900;8.208;2023-05-10T01:43:43;0.90;;;0.50;;
18455;SDS011;9357;49.900;8.208;2023-05-10T01:45:27;2.13;;;0.60;;
18455;SDS011;9357;49.900;8.208;2023-05-10T01:47:04;0.77;;;0.70;;
18455;SDS011;9357;49.900;8.208;2023-05-10T01:48:40;0.67;;;0.60;;
18455;SDS011;9357;49.900;8.208;2023-05-10T01:50:18;0.77;;;0.77;;
18455;SDS011;9357;49.900;8.208;2023-05-10T01:51:59;0.67;;;0.67;;
18455;SDS011;9357;49.900;8.208;2023-05-10T01:53:36;2.27;;;0.80;;
18455;SDS011;9357;49.900;8.208;2023-05-10T01:55:11;2.20;;;0.60;;
18455;SDS011;9357;49.900;8.208;2023-05-10T01:56:47;1.60;;;0.80;;
18455;SDS011;9357;49.900;8.208;2023-05-10T01:58:35;0.70;;;0.70;;
18455;SDS011;9357;49.900;8.208;2023-05-10T02:00:12;1.30;;;0.70;;
18455;SDS011;9357;49.900;8.208;2023-05-10T02:01:46;0.70;;;0.70;;
18455;SDS011;9357;49.900;8.208;2023-05-10T02:03:20;0.90;;;0.90;;
18455;SDS011;9357;49.900;8.208;2023-05-10T02:04:56;2.67;;;0.90;;
18455;SDS011;9357;49.900;8.208;2023-05-10T02:06:29;1.17;;;0.90;;
18455;SDS011;9357;49.900;8.208;2023-05-10T02:08:05;2.13;;;0.90;;
18455;SDS011;9357;49.900;8.208;2023-05-10T02:09:39;2.13;;;0.87;;
18455;SDS011;9357;49.900;8.208;2023-05-10T02:11:18;3.23;;;0.97;;
18455;SDS011;9357;49.900;8.208;2023-05-10T02:12:53;0.80;;;0.80;;
18455;SDS011;9357;49.900;8.208;2023-05-10T02:14:26;0.80;;;0.60;;
18455;SDS011;9357;49.900;8.208;2023-05-10T02:15:59;0.80;;;0.80;;
18455;SDS011;9357;49.900;8.208;2023-05-10T02:17:35;2.73;;;0.97;;
18455;SDS011;9357;49.900;8.208;2023-05-10T02:19:09;0.80;;;0.80;;
18455;SDS011;9357;49.900;8.208;2023-05-10T02:20:45;1.23;;;1.13;;
18455;SDS011;9357;49.900;8.208;2023-05-10T02:22:19;1.00;;;0.90;;
18455;SDS011;9357;49.900;8.208;2023-05-10T02:23:53;0.90;;;0.90;;
18455;SDS011;9357;49.900;8.208;2023-05-10T02:25:27;1.40;;;1.20;;
18455;SDS011;9357;49.900;8.208;2023-05-10T02:27:02;3.23;;;1.30;;
18455;SDS011;9357;49.900;8.208;2023-05-10T02:28:35;1.10;;;1.10;;
18455;SDS011;9357;49.900;8.208;2023-05-10T02:30:09;1.10;;;1.10;;
18455;SDS011;9357;49.900;8.208;2023-05-10T02:31:42;1.30;;;1.20;;
18455;SDS011;9357;49.900;8.208;2023-05-10T02:33:16;1.17;;;1.10;;
18455;SDS011;9357;49.900;8.208;2023-05-10T02:34:50;1.50;;;1.30;;
18455;SDS011;9357;49.900;8.208;2023-05-10T02:36:26;2.00;;;1.10;;
18455;SDS011;9357;49.900;8.208;2023-05-10T02:37:59;2.00;;;1.40;;
18455;SDS011;9357;49.900;8.208;2023-05-10T02:39:33;1.13;;;1.13;;
18455;SDS011;9357;49.900;8.208;2023-05-10T02:41:07;1.40;;;1.27;;
18455;SDS011;9357;49.900;8.208;2023-05-10T02:42:42;1.63;;;1.00;;
18455;SDS011;9357;49.900;8.208;2023-05-10T02:44:17;0.90;;;0.90;;
18455;SDS011;9357;49.900;8.208;2023-05-10T02:45:51;1.10;;;1.00;;
18455;SDS011;9357;49.900;8.208;2023-05-10T02:47:24;1.10;;;1.10;;
18455;SDS011;9357;49.900;8.208;2023-05-10T02:48:56;0.90;;;0.90;;
18455;SDS011;9357;49.900;8.208;2023-05-10T02:50:29;1.10;;;1.00;;
18455;SDS011;9357;49.900;8.208;2023-05-10T02:52:06;1.10;;;1.00;;
18455;SDS011;9357;49.900;8.208;2023-05-10T02:53:41;1.73;;;1.10;;
18455;SDS011;9357;49.900;8.208;2023-05-10T02:55:19;1.10;;;1.00;;
18455;SDS011;9357;49.900;8.208;2023-05-10T02:56:56;1.20;;;1.20;;
18455;SDS011;9357;49.900;8.208;2023-05-10T02:58:31;1.57;;;1.20;;
18455;SDS011;9357;49.900;8.208;2023-05-10T03:00:05;1.47;;;1.20;;
18455;SDS011;9357;49.900;8.208;2023-05-10T03:01:38;2.40;;;1.47;;
18455;SDS011;9357;49.900;8.208;2023-05-10T03:03:11;1.70;;;1.00;;
18455;SDS011;9357;49.900;8.208;2023-05-10T03:04:44;2.77;;;1.10;;
18455;SDS011;9357;49.900;8.208;2023-05-10T03:06:15;1.30;;;1.20;;
18455;SDS011;9357;49.900;8.208;2023-05-10T03:07:49;1.37;;;1.17;;
18455;SDS011;9357;49.900;8.208;2023-05-10T03:09:23;1.43;;;1.30;;
18455;SDS011;9357;49.900;8.208;2023-05-10T03:10:55;1.40;;;1.30;;
18455;SDS011;9357;49.900;8.208;2023-05-10T03:12:45;3.43;;;1.50;;
18455;SDS011;9357;49.900;8.208;2023-05-10T03:14:28;2.03;;;1.10;;
18455;SDS011;9357;49.900;8.208;2023-05-10T03:16:10;1.37;;;1.20;;
18455;SDS011;9357;49.900;8.208;2023-05-10T03:17:48;1.10;;;1.10;;
18455;SDS011;9357;49.900;8.208;2023-05-10T03:19:27;1.10;;;1.10;;
18455;SDS011;9357;49.900;8.208;2023-05-10T03:21:07;1.40;;;1.30;;
18455;SDS011;9357;49.900;8.208;2023-05-10T03:22:44;1.20;;;1.10;;
18455;SDS011;9357;49.900;8.208;2023-05-10T03:24:22;1.73;;;1.13;;
18455;SDS011;9357;49.900;8.208;2023-05-10T03:25:59;1.73;;;1.13;;
18455;SDS011;9357;49.900;8.208;2023-05-10T03:27:33;1.47;;;1.20;;
18455;SDS011;9357;49.900;8.208;2023-05-10T03:29:07;1.30;;;1.20;;
18455;SDS011;9357;49.900;8.208;2023-05-10T03:30:40;1.40;;;1.30;;
18455;SDS011;9357;49.900;8.208;2023-05-10T03:32:14;1.60;;;1.10;;
18455;SDS011;9357;49.900;8.208;2023-05-10T03:33:46;2.40;;;1.37;;
18455;SDS011;9357;49.900;8.208;2023-05-10T03:35:20;1.43;;;1.30;;
18455;SDS011;9357;49.900;8.208;2023-05-10T03:36:53;1.17;;;1.17;;
18455;SDS011;9357;49.900;8.208;2023-05-10T03:38:25;1.43;;;1.40;;
18455;SDS011;9357;49.900;8.208;2023-05-10T03:40:02;1.40;;;1.40;;
18455;SDS011;9357;49.900;8.208;2023-05-10T03:41:35;2.07;;;1.80;;
18455;SDS011;9357;49.900;8.208;2023-05-10T03:43:08;1.60;;;1.50;;
18455;SDS011;9357;49.900;8.208;2023-05-10T03:44:41;2.47;;;1.50;;
18455;SDS011;9357;49.900;8.208;2023-05-10T03:46:13;2.57;;;1.60;;
18455;SDS011;9357;49.900;8.208;2023-05-10T03:47:45;4.87;;;1.67;;
18455;SDS011;9357;49.900;8.208;2023-05-10T03:49:18;1.47;;;1.37;;
18455;SDS011;9357;49.900;8.208;2023-05-10T03:50:50;1.60;;;1.50;;
18455;SDS011;9357;49.900;8.208;2023-05-10T03:52:22;1.60;;;1.50;;
18455;SDS011;9357;49.900;8.208;2023-05-10T03:53:54;1.67;;;1.60;;
18455;SDS011;9357;49.900;8.208;2023-05-10T03:55:28;1.83;;;1.73;;
18455;SDS011;9357;49.900;8.208;2023-05-10T03:57:05;5.13;;;1.63;;
18455;SDS011;9357;49.900;8.208;2023-05-10T03:58:37;1.90;;;1.80;;
18455;SDS011;9357;49.900;8.208;2023-05-10T04:00:10;2.37;;;1.73;;
18455;SDS011;9357;49.900;8.208;2023-05-10T04:01:42;1.70;;;1.60;;
18455;SDS011;9357;49.900;8.208;2023-05-10T04:03:15;2.60;;;1.70;;
18455;SDS011;9357;49.900;8.208;2023-05-10T04:04:47;2.50;;;1.83;;
18455;SDS011;9357;49.900;8.208;2023-05-10T04:06:20;2.03;;;1.83;;
18455;SDS011;9357;49.900;8.208;2023-05-10T04:07:52;2.27;;;2.00;;
18455;SDS011;9357;49.900;8.208;2023-05-10T04:09:24;1.77;;;1.67;;
18455;SDS011;9357;49.900;8.208;2023-05-10T04:11:05;3.37;;;1.70;;
18455;SDS011;9357;49.900;8.208;2023-05-10T04:12:39;2.80;;;1.63;;
18455;SDS011;9357;49.900;8.208;2023-05-10T04:14:12;1.90;;;1.80;;
18455;SDS011;9357;49.900;8.208;2023-05-10T04:15:43;2.97;;;1.83;;
18455;SDS011;9357;49.900;8.208;2023-05-10T04:17:16;1.90;;;1.80;;
18455;SDS011;9357;49.900;8.208;2023-05-10T04:18:49;2.57;;;2.00;;
18455;SDS011;9357;49.900;8.208;2023-05-10T04:20:22;1.80;;;1.70;;
18455;SDS011;9357;49.900;8.208;2023-05-10T04:21:54;2.77;;;2.00;;
18455;SDS011;9357;49.900;8.208;2023-05-10T04:23:27;2.00;;;1.90;;
18455;SDS011;9357;49.900;8.208;2023-05-10T04:25:00;3.10;;;2.37;;
18455;SDS011;9357;49.900;8.208;2023-05-10T04:26:34;2.10;;;2.00;;
18455;SDS011;9357;49.900;8.208;2023-05-10T04:28:06;3.73;;;2.40;;
18455;SDS011;9357;49.900;8.208;2023-05-10T04:29:38;2.33;;;2.13;;
18455;SDS011;9357;49.900;8.208;2023-05-10T04:31:11;2.57;;;2.30;;
18455;SDS011;9357;49.900;8.208;2023-05-10T04:32:44;2.50;;;2.30;;
18455;SDS011;9357;49.900;8.208;2023-05-10T04:34:17;2.60;;;2.20;;
18455;SDS011;9357;49.900;8.208;2023-05-10T04:35:49;2.73;;;2.20;;
18455;SDS011;9357;49.900;8.208;2023-05-10T04:37:22;2.60;;;2.40;;
18455;SDS011;9357;49.900;8.208;2023-05-10T04:38:55;3.07;;;2.30;;
18455;SDS011;9357;49.900;8.208;2023-05-10T04:40:27;2.67;;;2.30;;
18455;SDS011;9357;49.900;8.208;2023-05-10T04:42:01;2.80;;;2.43;;
18455;SDS011;9357;49.900;8.208;2023-05-10T04:43:36;3.87;;;2.47;;
18455;SDS011;9357;49.900;8.208;2023-05-10T04:45:10;4.40;;;2.40;;
18455;SDS011;9357;49.900;8.208;2023-05-10T04:46:42;4.13;;;2.50;;
18455;SDS011;9357;49.900;8.208;2023-05-10T04:48:15;2.50;;;2.30;;
18455;SDS011;9357;49.900;8.208;2023-05-10T04:49:47;4.73;;;2.40;;
18455;SDS011;9357;49.900;8.208;2023-05-10T04:51:20;4.43;;;2.43;;
18455;SDS011;9357;49.900;8.208;2023-05-10T04:52:52;2.63;;;2.43;;
18455;SDS011;9357;49.900;8.208;2023-05-10T04:54:25;2.97;;;2.33;;
18455;SDS011;9357;49.900;8.208;2023-05-10T04:55:58;4.13;;;2.33;;
18455;SDS011;9357;49.900;8.208;2023-05-10T04:57:31;3.47;;;2.53;;
18455;SDS011;9357;49.900;8.208;2023-05-10T04:59:04;3.00;;;2.60;;
18455;SDS011;9357;49.900;8.208;2023-05-10T05:00:36;6.37;;;2.50;;
18455;SDS011;9357;49.900;8.208;2023-05-10T05:02:09;3.83;;;2.50;;
18455;SDS011;9357;49.900;8.208;2023-05-10T05:03:42;3.10;;;2.80;;
18455;SDS011;9357;49.900;8.208;2023-05-10T05:05:14;5.17;;;2.90;;
18455;SDS011;9357;49.900;8.208;2023-05-10T05:06:47;4.30;;;3.20;;
18455;SDS011;9357;49.900;8.208;2023-05-10T05:08:24;4.10;;;2.80;;
18455;SDS011;9357;49.900;8.208;2023-05-10T05:09:57;4.83;;;3.30;;
18455;SDS011;9357;49.900;8.208;2023-05-10T05:11:29;4.60;;;3.00;;
18455;SDS011;9357;49.900;8.208;2023-05-10T05:13:03;3.33;;;2.90;;
18455;SDS011;9357;49.900;8.208;2023-05-10T05:14:36;4.27;;;3.30;;
18455;SDS011;9357;49.900;8.208;2023-05-10T05:16:09;4.23;;;3.20;;
18455;SDS011;9357;49.900;8.208;2023-05-10T05:17:42;5.00;;;3.10;;
18455;SDS011;9357;49.900;8.208;2023-05-10T05:19:15;4.10;;;3.20;;
18455;SDS011;9357;49.900;8.208;2023-05-10T05:20:47;3.57;;;3.10;;
18455;SDS011;9357;49.900;8.208;2023-05-10T05:22:20;3.23;;;2.90;;
18455;SDS011;9357;49.900;8.208;2023-05-10T05:23:58;5.13;;;3.23;;
18455;SDS011;9357;49.900;8.208;2023-05-10T05:25:31;4.40;;;3.30;;
18455;SDS011;9357;49.900;8.208;2023-05-10T05:27:03;4.87;;;2.90;;
18455;SDS011;9357;49.900;8.208;2023-05-10T05:28:38;5.37;;;3.10;;
18455;SDS011;9357;49.900;8.208;2023-05-10T05:30:11;7.30;;;2.67;;
18455;SDS011;9357;49.900;8.208;2023-05-10T05:31:44;5.27;;;2.80;;
18455;SDS011;9357;49.900;8.208;2023-05-10T05:33:16;5.03;;;3.00;;
18455;SDS011;9357;49.900;8.208;2023-05-10T05:34:49;4.50;;;4.10;;
18455;SDS011;9357;49.900;8.208;2023-05-10T05:36:22;5.53;;;3.27;;
18455;SDS011;9357;49.900;8.208;2023-05-10T05:37:55;3.37;;;3.07;;
18455;SDS011;9357;49.900;8.208;2023-05-10T05:39:28;4.43;;;3.13;;
18455;SDS011;9357;49.900;8.208;2023-05-10T05:41:01;4.60;;;2.97;;
18455;SDS011;9357;49.900;8.208;2023-05-10T05:42:34;4.53;;;2.90;;
18455;SDS011;9357;49.900;8.208;2023-05-10T05:44:08;6.40;;;3.33;;
18455;SDS011;9357;49.900;8.208;2023-05-10T05:45:41;4.50;;;3.00;;
18455;SDS011;9357;49.900;8.208;2023-05-10T05:47:13;3.87;;;2.57;;
18455;SDS011;9357;49.900;8.208;2023-05-10T05:48:46;4.93;;;2.60;;
18455;SDS011;9357;49.900;8.208;2023-05-10T05:50:19;3.90;;;2.57;;
18455;SDS011;9357;49.900;8.208;2023-05-10T05:51:52;4.70;;;2.70;;
18455;SDS011;9357;49.900;8.208;2023-05-10T05:53:24;3.83;;;2.67;;
18455;SDS011;9357;49.900;8.208;2023-05-10T05:54:57;2.90;;;2.50;;
18455;SDS011;9357;49.900;8.208;2023-05-10T05:56:30;3.83;;;2.43;;
18455;SDS011;9357;49.900;8.208;2023-05-10T05:58:03;5.13;;;2.40;;
18455;SDS011;9357;49.900;8.208;2023-05-10T05:59:37;3.87;;;2.60;;
18455;SDS011;9357;49.900;8.208;2023-05-10T06:01:12;5.43;;;2.90;;
18455;SDS011;9357;49.900;8.208;2023-05-10T06:02:45;4.73;;;2.70;;
18455;SDS011;9357;49.900;8.208;2023-05-10T06:04:19;5.93;;;2.80;;
18455;SDS011;9357;49.900;8.208;2023-05-10T06:05:52;3.53;;;2.53;;
18455;SDS011;9357;49.900;8.208;2023-05-10T06:07:24;3.90;;;2.30;;
18455;SDS011;9357;49.900;8.208;2023-05-10T06:08:57;5.67;;;2.57;;
18455;SDS011;9357;49.900;8.208;2023-05-10T06:10:30;6.37;;;2.57;;
18455;SDS011;9357;49.900;8.208;2023-05-10T06:12:03;3.63;;;2.40;;
18455;SDS011;9357;49.900;8.208;2023-05-10T06:13:36;3.23;;;2.50;;
18455;SDS011;9357;49.900;8.208;2023-05-10T06:15:10;3.30;;;2.20;;
18455;SDS011;9357;49.900;8.208;2023-05-10T06:16:43;9.30;;;2.53;;
18455;SDS011;9357;49.900;8.208;2023-05-10T06:18:16;6.20;;;2.50;;
18455;SDS011;9357;49.900;8.208;2023-05-10T06:19:49;5.40;;;2.37;;
18455;SDS011;9357;49.900;8.208;2023-05-10T06:21:22;4.43;;;2.30;;
18455;SDS011;9357;49.900;8.208;2023-05-10T06:22:54;6.20;;;2.50;;
18455;SDS011;9357;49.900;8.208;2023-05-10T06:24:27;3.43;;;2.20;;
18455;SDS011;9357;49.900;8.208;2023-05-10T06:26:00;5.33;;;2.27;;
18455;SDS011;9357;49.900;8.208;2023-05-10T06:27:32;9.33;;;2.60;;
18455;SDS011;9357;49.900;8.208;2023-05-10T06:29:05;2.20;;;1.97;;
18455;SDS011;9357;49.900;8.208;2023-05-10T06:30:39;4.30;;;2.53;;
18455;SDS011;9357;49.900;8.208;2023-05-10T06:32:12;2.43;;;2.20;;
18455;SDS011;9357;49.900;8.208;2023-05-10T06:33:45;2.40;;;2.20;;
18455;SDS011;9357;49.900;8.208;2023-05-10T06:35:18;3.90;;;2.10;;
18455;SDS011;9357;49.900;8.208;2023-05-10T06:36:50;2.67;;;2.10;;
18455;SDS011;9357;49.900;8.208;2023-05-10T06:38:23;2.97;;;1.93;;
18455;SDS011;9357;49.900;8.208;2023-05-10T06:39:56;3.30;;;2.03;;
18455;SDS011;9357;49.900;8.208;2023-05-10T06:41:29;4.60;;;2.27;;
18455;SDS011;9357;49.900;8.208;2023-05-10T06:43:02;2.60;;;2.10;;
18455;SDS011;9357;49.900;8.208;2023-05-10T06:44:34;3.93;;;2.40;;
18455;SDS011;9357;49.900;8.208;2023-05-10T06:46:09;5.83;;;2.40;;
18455;SDS011;9357;49.900;8.208;2023-05-10T06:47:41;4.20;;;2.20;;
18455;SDS011;9357;49.900;8.208;2023-05-10T06:49:14;3.47;;;2.30;;
18455;SDS011;9357;49.900;8.208;2023-05-10T06:50:47;2.70;;;2.50;;
18455;SDS011;9357;49.900;8.208;2023-05-10T06:52:20;3.80;;;2.43;;
18455;SDS011;9357;49.900;8.208;2023-05-10T06:53:52;3.07;;;2.30;;
18455;SDS011;9357;49.900;8.208;2023-05-10T06:55:25;3.30;;;2.30;;
18455;SDS011;9357;49.900;8.208;2023-05-10T06:56:58;4.17;;;2.53;;
18455;SDS011;9357;49.900;8.208;2023-05-10T06:58:34;2.77;;;2.50;;
18455;SDS011;9357;49.900;8.208;2023-05-10T07:00:07;2.63;;;2.40;;
18455;SDS011;9357;49.900;8.208;2023-05-10T07:01:42;2.93;;;2.60;;
18455;SDS011;9357;49.900;8.208;2023-05-10T07:03:15;4.17;;;2.50;;
18455;SDS011;9357;49.900;8.208;2023-05-10T07:04:48;3.57;;;2.20;;
18455;SDS011;9357;49.900;8.208;2023-05-10T07:06:21;4.70;;;2.20;;
18455;SDS011;9357;49.900;8.208;2023-05-10T07:08:03;3.43;;;2.10;;
18455;SDS011;9357;49.900;8.208;2023-05-10T07:09:36;4.30;;;2.47;;
18455;SDS011;9357;49.900;8.208;2023-05-10T07:11:09;3.93;;;2.00;;
18455;SDS011;9357;49.900;8.208;2023-05-10T07:12:42;3.17;;;2.10;;
18455;SDS011;9357;49.900;8.208;2023-05-10T07:14:15;4.40;;;2.20;;
18455;SDS011;9357;49.900;8.208;2023-05-10T07:15:48;2.07;;;1.87;;
18455;SDS011;9357;49.900;8.208;2023-05-10T07:17:22;3.20;;;2.30;;
18455;SDS011;9357;49.900;8.208;2023-05-10T07:18:55;3.30;;;2.20;;
18455;SDS011;9357;49.900;8.208;2023-05-10T07:20:28;3.60;;;2.20;;
18455;SDS011;9357;49.900;8.208;2023-05-10T07:22:00;4.03;;;2.30;;
18455;SDS011;9357;49.900;8.208;2023-05-10T07:23:33;4.13;;;2.40;;
18455;SDS011;9357;49.900;8.208;2023-05-10T07:25:06;3.50;;;2.27;;
18455;SDS011;9357;49.900;8.208;2023-05-10T07:26:39;4.07;;;2.30;;
18455;SDS011;9357;49.900;8.208;2023-05-10T07:28:12;3.70;;;2.60;;
18455;SDS011;9357;49.900;8.208;2023-05-10T07:29:45;2.30;;;2.10;;
18455;SDS011;9357;49.900;8.208;2023-05-10T07:31:18;3.17;;;2.37;;
18455;SDS011;9357;49.900;8.208;2023-05-10T07:32:52;3.17;;;2.50;;
18455;SDS011;9357;49.900;8.208;2023-05-10T07:34:25;2.80;;;2.50;;
18455;SDS011;9357;49.900;8.208;2023-05-10T07:35:57;3.23;;;2.40;;
18455;SDS011;9357;49.900;8.208;2023-05-10T07:37:30;3.83;;;2.30;;
18455;SDS011;9357;49.900;8.208;2023-05-10T07:39:03;3.10;;;2.47;;
18455;SDS011;9357;49.900;8.208;2023-05-10T07:40:36;5.07;;;2.23;;
18455;SDS011;9357;49.900;8.208;2023-05-10T07:42:09;2.30;;;2.20;;
18455;SDS011;9357;49.900;8.208;2023-05-10T07:43:42;5.07;;;2.23;;
18455;SDS011;9357;49.900;8.208;2023-05-10T07:45:15;2.43;;;2.10;;
18455;SDS011;9357;49.900;8.208;2023-05-10T07:46:48;4.60;;;2.20;;
18455;SDS011;9357;49.900;8.208;2023-05-10T07:48:22;4.43;;;2.10;;
18455;SDS011;9357;49.900;8.208;2023-05-10T07:49:55;2.43;;;1.90;;
18455;SDS011;9357;49.900;8.208;2023-05-10T07:51:28;3.03;;;1.83;;
18455;SDS011;9357;49.900;8.208;2023-05-10T07:53:00;2.23;;;1.70;;
18455;SDS011;9357;49.900;8.208;2023-05-10T07:54:33;3.57;;;1.80;;
18455;SDS011;9357;49.900;8.208;2023-05-10T07:56:19;4.17;;;2.10;;
18455;SDS011;9357;49.900;8.208;2023-05-10T07:57:53;2.97;;;1.87;;
18455;SDS011;9357;49.900;8.208;2023-05-10T07:59:26;2.83;;;1.80;;
18455;SDS011;9357;49.900;8.208;2023-05-10T08:00:59;2.50;;;1.73;;
18455;SDS011;9357;49.900;8.208;2023-05-10T08:02:32;3.67;;;1.80;;
18455;SDS011;9357;49.900;8.208;2023-05-10T08:04:06;2.63;;;1.90;;
18455;SDS011;9357;49.900;8.208;2023-05-10T08:05:40;2.60;;;1.67;;
18455;SDS011;9357;49.900;8.208;2023-05-10T08:07:12;2.50;;;1.60;;
18455;SDS011;9357;49.900;8.208;2023-05-10T08:08:45;2.07;;;1.70;;
18455;SDS011;9357;49.900;8.208;2023-05-10T08:10:20;2.23;;;1.90;;
18455;SDS011;9357;49.900;8.208;2023-05-10T08:11:53;2.07;;;1.50;;
18455;SDS011;9357;49.900;8.208;2023-05-10T08:13:26;4.60;;;1.60;;
18455;SDS011;9357;49.900;8.208;2023-05-10T08:14:58;3.77;;;1.50;;
18455;SDS011;9357;49.900;8.208;2023-05-10T08:16:31;1.70;;;1.60;;
18455;SDS011;9357;49.900;8.208;2023-05-10T08:18:05;3.27;;;1.40;;
18455;SDS011;9357;49.900;8.208;2023-05-10T08:19:39;3.23;;;1.70;;
18455;SDS011;9357;49.900;8.208;2023-05-10T08:21:12;2.07;;;1.43;;
18455;SDS011;9357;49.900;8.208;2023-05-10T08:22:45;1.43;;;1.30;;
18455;SDS011;9357;49.900;8.208;2023-05-10T08:24:21;1.70;;;1.37;;
18455;SDS011;9357;49.900;8.208;2023-05-10T08:25:55;1.90;;;1.70;;
18455;SDS011;9357;49.900;8.208;2023-05-10T08:27:29;2.23;;;1.50;;
18455;SDS011;9357;49.900;8.208;2023-05-10T08:29:02;1.83;;;1.50;;
18455;SDS011;9357;49.900;8.208;2023-05-10T08:30:35;2.10;;;1.53;;
18455;SDS011;9357;49.900;8.208;2023-05-10T08:32:08;2.07;;;1.50;;
18455;SDS011;9357;49.900;8.208;2023-05-10T08:33:41;2.23;;;1.30;;
18455;SDS011;9357;49.900;8.208;2023-05-10T08:35:16;1.83;;;1.30;;
18455;SDS011;9357;49.900;8.208;2023-05-10T08:36:49;1.50;;;1.40;;
18455;SDS011;9357;49.900;8.208;2023-05-10T08:38:22;2.93;;;1.30;;
18455;SDS011;9357;49.900;8.208;2023-05-10T08:39:54;1.37;;;1.27;;
18455;SDS011;9357;49.900;8.208;2023-05-10T08:41:27;1.40;;;1.30;;
18455;SDS011;9357;49.900;8.208;2023-05-10T08:43:03;1.73;;;1.40;;
18455;SDS011;9357;49.900;8.208;2023-05-10T08:44:38;1.83;;;1.10;;
18455;SDS011;9357;49.900;8.208;2023-05-10T08:46:11;1.17;;;1.10;;
18455;SDS011;9357;49.900;8.208;2023-05-10T08:47:47;1.40;;;1.10;;
18455;SDS011;9357;49.900;8.208;2023-05-10T08:49:21;1.10;;;0.97;;
18455;SDS011;9357;49.900;8.208;2023-05-10T08:50:56;1.07;;;0.90;;
18455;SDS011;9357;49.900;8.208;2023-05-10T08:52:33;1.73;;;0.87;;
18455;SDS011;9357;49.900;8.208;2023-05-10T08:54:10;1.50;;;1.00;;
18455;SDS011;9357;49.900;8.208;2023-05-10T08:55:43;1.10;;;1.00;;
18455;SDS011;9357;49.900;8.208;2023-05-10T08:57:16;1.10;;;1.00;;
18455;SDS011;9357;49.900;8.208;2023-05-10T08:58:50;1.80;;;1.10;;
18455;SDS011;9357;49.900;8.208;2023-05-10T09:00:23;0.90;;;0.80;;
18455;SDS011;9357;49.900;8.208;2023-05-10T09:01:57;0.70;;;0.70;;
18455;SDS011;9357;49.900;8.208;2023-05-10T09:03:31;0.80;;;0.80;;
18455;SDS011;9357;49.900;8.208;2023-05-10T09:05:04;1.00;;;0.70;;
18455;SDS011;9357;49.900;8.208;2023-05-10T09:06:39;0.87;;;0.80;;
18455;SDS011;9357;49.900;8.208;2023-05-10T09:08:12;2.47;;;0.90;;
18455;SDS011;9357;49.900;8.208;2023-05-10T09:09:47;0.77;;;0.77;;
18455;SDS011;9357;49.900;8.208;2023-05-10T09:11:21;1.07;;;0.70;;
18455;SDS011;9357;49.900;8.208;2023-05-10T09:12:54;0.80;;;0.80;;
18455;SDS011;9357;49.900;8.208;2023-05-10T09:14:29;0.70;;;0.70;;
18455;SDS011;9357;49.900;8.208;2023-05-10T09:16:05;1.23;;;0.70;;
18455;SDS011;9357;49.900;8.208;2023-05-10T09:17:52;0.83;;;0.70;;
18455;SDS011;9357;49.900;8.208;2023-05-10T09:19:27;1.20;;;0.60;;
18455;SDS011;9357;49.900;8.208;2023-05-10T09:21:00;0.60;;;0.60;;
18455;SDS011;9357;49.900;8.208;2023-05-10T09:22:34;0.70;;;0.70;;
18455;SDS011;9357;49.900;8.208;2023-05-10T09:24:07;3.70;;;1.03;;
18455;SDS011;9357;49.900;8.208;2023-05-10T09:25:40;1.03;;;0.70;;
18455;SDS011;9357;49.900;8.208;2023-05-10T09:27:14;2.00;;;0.73;;
18455;SDS011;9357;49.900;8.208;2023-05-10T09:28:50;2.00;;;0.90;;
18455;SDS011;9357;49.900;8.208;2023-05-10T09:30:24;1.17;;;0.80;;
18455;SDS011;9357;49.900;8.208;2023-05-10T09:31:58;1.90;;;0.90;;
18455;SDS011;9357;49.900;8.208;2023-05-10T09:33:33;0.90;;;0.80;;
18455;SDS011;9357;49.900;8.208;2023-05-10T09:35:16;0.70;;;0.70;;
18455;SDS011;9357;49.900;8.208;2023-05-10T09:36:51;0.70;;;0.70;;
18455;SDS011;9357;49.900;8.208;2023-05-10T09:38:26;1.97;;;0.70;;